createdAt,value
2022-12-19T00:00:15.278Z,0.90
2022-12-19T00:02:43.661Z,0.90
2022-12-19T00:05:13.813Z,1.20
2022-12-19T00:07:41.497Z,1.50
2022-12-19T00:10:09.787Z,1.50
2022-12-19T00:12:37.461Z,1.60
2022-12-19T00:15:07.537Z,1.30
2022-12-19T00:17:35.202Z,1.40
2022-12-19T00:20:05.308Z,1.60
2022-12-19T00:22:33.016Z,1.70
2022-12-19T00:25:04.573Z,1.70
2022-12-19T00:27:34.735Z,1.70
2022-12-19T00:30:02.428Z,1.50
2022-12-19T00:32:31.451Z,1.30
2022-12-19T00:34:59.154Z,1.30
2022-12-19T00:37:29.001Z,1.50
2022-12-19T00:39:56.703Z,1.60
2022-12-19T00:42:24.426Z,1.60
2022-12-19T00:44:52.095Z,1.80
2022-12-19T00:47:19.765Z,1.90
2022-12-19T00:49:51.561Z,1.90
2022-12-19T00:52:19.231Z,1.90
2022-12-19T00:54:47.643Z,1.70
2022-12-19T00:57:15.414Z,1.60
2022-12-19T00:59:43.075Z,1.60
2022-12-19T01:02:10.859Z,1.40
2022-12-19T01:04:49.998Z,1.30
2022-12-19T01:07:17.679Z,1.00
2022-12-19T01:09:45.366Z,0.90
2022-12-19T01:12:31.069Z,1.00
2022-12-19T01:15:04.448Z,1.00
2022-12-19T01:17:34.682Z,1.20
2022-12-19T01:20:10.550Z,1.30
2022-12-19T01:22:38.243Z,1.20
2022-12-19T01:25:06.707Z,1.00
2022-12-19T01:27:34.419Z,0.80
2022-12-19T01:30:02.198Z,0.80
2022-12-19T01:32:29.866Z,0.80
2022-12-19T01:34:57.542Z,0.90
2022-12-19T01:37:26.554Z,0.90
2022-12-19T01:39:54.264Z,1.00
2022-12-19T01:42:23.365Z,1.30
2022-12-19T01:45:20.415Z,1.20
2022-12-19T01:47:53.621Z,0.90
2022-12-19T01:50:24.642Z,0.50
2022-12-19T01:52:54.644Z,0.40
2022-12-19T01:55:22.518Z,0.40
2022-12-19T01:57:50.270Z,0.30
2022-12-19T02:00:18.029Z,0.20
2022-12-19T02:02:47.680Z,0.10
2022-12-19T02:05:15.563Z,0.10
2022-12-19T02:07:44.146Z,0.00
2022-12-19T02:10:13.171Z,0.00
2022-12-19T02:12:42.392Z,0.40
2022-12-19T02:15:11.162Z,0.30
2022-12-19T02:17:42.844Z,0.10
2022-12-19T02:20:27.835Z,0.20
2022-12-19T02:23:04.751Z,0.10
2022-12-19T02:25:55.793Z,0.00
2022-12-19T02:28:43.180Z,0.10
2022-12-19T02:31:17.508Z,-0.10
2022-12-19T02:33:46.628Z,0.30
2022-12-19T02:36:17.344Z,0.40
2022-12-19T02:38:49.195Z,0.10
2022-12-19T02:41:21.289Z,0.20
2022-12-19T02:43:56.770Z,0.50
2022-12-19T02:46:29.249Z,0.70
2022-12-19T02:48:57.564Z,0.90
2022-12-19T02:51:25.301Z,0.70
2022-12-19T02:53:53.077Z,0.30
2022-12-19T02:56:25.256Z,0.20
2022-12-19T02:59:00.246Z,0.40
2022-12-19T03:01:37.975Z,0.60
2022-12-19T03:04:09.751Z,0.70
2022-12-19T03:06:41.808Z,0.80
2022-12-19T03:09:14.887Z,0.80
2022-12-19T03:11:42.989Z,1.10
2022-12-19T03:14:12.606Z,1.30
2022-12-19T03:16:42.073Z,1.20
2022-12-19T03:19:10.327Z,1.00
2022-12-19T03:21:39.599Z,1.00
2022-12-19T03:24:08.081Z,1.20
2022-12-19T03:26:38.717Z,1.50
2022-12-19T03:29:09.143Z,1.40
2022-12-19T03:31:38.881Z,1.40
2022-12-19T03:34:11.245Z,1.30
2022-12-19T03:36:41.339Z,1.20
2022-12-19T03:39:10.634Z,1.30
2022-12-19T03:41:56.388Z,1.40
2022-12-19T03:44:26.359Z,1.20
2022-12-19T03:46:59.510Z,1.10
2022-12-19T03:49:28.548Z,1.30
2022-12-19T03:52:00.889Z,1.20
2022-12-19T03:54:29.854Z,1.50
2022-12-19T03:57:00.324Z,1.50
2022-12-19T03:59:32.217Z,1.70
2022-12-19T04:02:00.125Z,1.70
2022-12-19T04:04:31.793Z,1.80
2022-12-19T04:06:59.725Z,1.70
2022-12-19T04:09:27.735Z,1.60
2022-12-19T04:11:56.324Z,1.50
2022-12-19T04:14:27.326Z,1.60
2022-12-19T04:16:58.408Z,1.80
2022-12-19T04:19:30.716Z,2.00
2022-12-19T04:22:02.786Z,2.00
2022-12-19T04:24:34.216Z,2.00
2022-12-19T04:27:03.854Z,2.10
2022-12-19T04:29:32.542Z,2.00
2022-12-19T04:32:00.905Z,1.90
2022-12-19T04:34:28.597Z,2.00
2022-12-19T04:36:56.274Z,1.80
2022-12-19T04:39:25.356Z,1.80
2022-12-19T04:41:53.311Z,1.70
2022-12-19T04:44:21.650Z,1.70
2022-12-19T04:46:49.556Z,1.80
2022-12-19T04:49:17.290Z,1.90
2022-12-19T04:51:45.005Z,1.80
2022-12-19T04:54:12.821Z,1.80
2022-12-19T04:56:41.836Z,1.90
2022-12-19T04:59:09.615Z,1.70
2022-12-19T05:01:37.434Z,1.40
2022-12-19T05:04:05.260Z,1.60
2022-12-19T05:06:33.026Z,1.80
2022-12-19T05:09:00.745Z,2.00
2022-12-19T05:11:28.419Z,1.80
2022-12-19T05:13:59.041Z,2.00
2022-12-19T05:16:26.777Z,1.90
2022-12-19T05:18:54.518Z,2.20
2022-12-19T05:21:22.408Z,2.40
2022-12-19T05:23:50.280Z,2.30
2022-12-19T05:26:18.312Z,2.10
2022-12-19T05:28:46.089Z,2.20
2022-12-19T05:31:16.041Z,2.30
2022-12-19T05:33:43.888Z,2.40
2022-12-19T05:36:12.231Z,2.50
2022-12-19T05:38:39.915Z,2.60
2022-12-19T05:41:08.667Z,2.30
2022-12-19T05:43:36.493Z,2.00
2022-12-19T05:46:05.287Z,1.70
2022-12-19T05:48:34.327Z,1.50
2022-12-19T05:51:02.243Z,1.30
2022-12-19T05:53:29.947Z,1.10
2022-12-19T05:56:03.750Z,1.10
2022-12-19T05:58:31.735Z,1.00
2022-12-19T06:01:02.432Z,0.80
2022-12-19T06:03:30.208Z,0.80
2022-12-19T06:05:59.292Z,0.70
2022-12-19T06:08:26.985Z,0.60
2022-12-19T06:10:54.670Z,0.50
2022-12-19T06:13:25.134Z,0.40
2022-12-19T06:15:57.619Z,0.40
2022-12-19T06:18:25.370Z,0.40
2022-12-19T06:20:56.808Z,0.50
2022-12-19T06:23:26.051Z,0.50
2022-12-19T06:25:53.763Z,0.50
2022-12-19T06:28:21.421Z,0.50
2022-12-19T06:30:49.402Z,0.40
2022-12-19T06:33:17.156Z,0.40
2022-12-19T06:35:44.900Z,0.40
2022-12-19T06:38:12.615Z,0.40
2022-12-19T06:41:01.049Z,0.40
2022-12-19T06:43:28.730Z,0.40
2022-12-19T06:45:58.069Z,0.50
2022-12-19T06:48:25.957Z,0.50
2022-12-19T06:50:53.636Z,0.40
2022-12-19T06:53:21.355Z,0.40
2022-12-19T06:55:51.386Z,0.40
2022-12-19T06:58:24.017Z,0.40
2022-12-19T07:00:52.310Z,0.40
2022-12-19T07:03:22.689Z,0.40
2022-12-19T07:05:50.705Z,0.40
2022-12-19T07:08:18.422Z,0.40
2022-12-19T07:10:46.160Z,0.40
2022-12-19T07:13:15.451Z,0.50
2022-12-19T07:15:43.160Z,0.40
2022-12-19T07:18:11.405Z,0.40
2022-12-19T07:20:45.071Z,0.50
2022-12-19T07:23:15.536Z,0.50
2022-12-19T07:25:43.355Z,0.50
2022-12-19T07:28:11.072Z,0.40
2022-12-19T07:30:40.123Z,0.40
2022-12-19T07:33:10.928Z,0.40
2022-12-19T07:35:39.228Z,0.30
2022-12-19T07:38:08.208Z,0.30
2022-12-19T07:40:36.086Z,0.30
2022-12-19T07:43:04.250Z,0.20
2022-12-19T07:45:31.998Z,0.20
2022-12-19T07:48:01.978Z,0.30
2022-12-19T07:50:30.431Z,0.30
2022-12-19T07:52:58.617Z,0.40
2022-12-19T07:55:26.629Z,0.40
2022-12-19T07:57:55.408Z,0.50
2022-12-19T08:00:23.373Z,0.50
2022-12-19T08:02:51.139Z,0.50
2022-12-19T08:05:20.280Z,0.50
2022-12-19T08:07:48.006Z,0.50
2022-12-19T08:10:15.922Z,0.50
2022-12-19T08:12:43.635Z,0.60
2022-12-19T08:15:11.554Z,0.60
2022-12-19T08:17:39.597Z,0.70
2022-12-19T08:20:08.870Z,0.70
2022-12-19T08:22:38.226Z,0.70
2022-12-19T08:25:07.156Z,0.70
2022-12-19T08:27:35.637Z,0.70
2022-12-19T08:30:03.416Z,0.70
2022-12-19T08:32:31.117Z,0.60
2022-12-19T08:34:58.877Z,0.60
2022-12-19T08:37:26.604Z,0.60
2022-12-19T08:39:55.633Z,0.60
2022-12-19T08:42:23.305Z,0.60
2022-12-19T08:44:51.108Z,0.50
2022-12-19T08:47:18.805Z,0.60
2022-12-19T08:49:46.512Z,0.60
2022-12-19T08:52:14.204Z,0.80
2022-12-19T08:54:41.863Z,0.70
2022-12-19T08:57:10.921Z,0.70
2022-12-19T08:59:38.604Z,0.80
2022-12-19T09:02:07.453Z,0.70
2022-12-19T09:06:00.268Z,0.80
2022-12-19T09:07:23.007Z,0.80
2022-12-19T09:09:50.679Z,0.90
2022-12-19T09:12:19.931Z,0.90
2022-12-19T09:14:47.839Z,0.90
2022-12-19T09:17:15.821Z,0.80
2022-12-19T09:19:47.387Z,0.80
2022-12-19T09:22:15.755Z,0.80
2022-12-19T09:24:43.454Z,0.80
2022-12-19T09:27:11.131Z,0.80
2022-12-19T09:29:40.617Z,0.90
2022-12-19T09:32:08.653Z,0.90
2022-12-19T09:34:38.649Z,0.90
2022-12-19T09:37:08.104Z,0.80
2022-12-19T09:39:36.387Z,0.80
2022-12-19T09:42:11.210Z,0.80
2022-12-19T09:44:49.866Z,0.80
2022-12-19T09:47:18.363Z,0.90
2022-12-19T09:49:47.344Z,0.90
2022-12-19T09:52:16.842Z,0.90
2022-12-19T09:54:47.201Z,1.00
2022-12-19T09:57:16.235Z,1.00
2022-12-19T09:59:50.169Z,1.00
2022-12-19T10:02:26.966Z,1.10
2022-12-19T10:05:11.439Z,1.20
2022-12-19T10:08:07.058Z,1.30
2022-12-19T10:12:36.519Z,1.40
2022-12-19T10:13:37.486Z,1.50
2022-12-19T10:16:11.272Z,1.50
2022-12-19T10:18:48.564Z,1.60
2022-12-19T10:21:50.821Z,1.60
2022-12-19T10:24:24.122Z,1.60
2022-12-19T10:26:52.662Z,1.60
2022-12-19T10:29:38.500Z,1.60
2022-12-19T10:32:13.067Z,1.60
2022-12-19T10:34:42.144Z,1.70
2022-12-19T10:37:27.161Z,1.60
2022-12-19T10:40:01.605Z,1.60
2022-12-19T10:42:33.847Z,1.70
2022-12-19T10:45:04.315Z,1.70
2022-12-19T10:47:33.359Z,1.70
2022-12-19T10:50:07.308Z,1.70
2022-12-19T10:52:52.395Z,1.70
2022-12-19T10:55:39.907Z,1.70
2022-12-19T10:58:12.595Z,1.70
2022-12-19T11:00:46.570Z,1.70
2022-12-19T11:03:19.045Z,1.60
2022-12-19T11:05:50.643Z,1.60
2022-12-19T11:08:26.368Z,1.50
2022-12-19T11:12:55.798Z,1.40
2022-12-19T11:19:08.202Z,1.50
2022-12-19T11:20:45.545Z,1.50
2022-12-19T11:29:17.290Z,1.40
2022-12-19T11:29:34.560Z,1.40
2022-12-19T11:30:36.957Z,1.40
2022-12-19T11:30:47.824Z,1.50
2022-12-19T11:33:29.697Z,1.50
2022-12-19T11:35:59.779Z,1.50
2022-12-19T11:38:33.269Z,1.50
2022-12-19T11:41:03.813Z,1.60
2022-12-19T11:43:44.475Z,1.60
2022-12-19T11:46:22.120Z,1.50
2022-12-19T11:48:53.439Z,1.50
2022-12-19T11:51:26.539Z,1.40
2022-12-19T11:54:00.198Z,1.50
2022-12-19T11:56:29.571Z,1.50
2022-12-19T11:58:58.968Z,1.50
2022-12-19T12:01:45.355Z,1.50
2022-12-19T12:04:19.063Z,1.50
2022-12-19T12:06:50.750Z,1.50
2022-12-19T12:10:05.162Z,1.40
2022-12-19T12:17:05.044Z,1.50
2022-12-19T12:26:02.121Z,1.60
2022-12-19T12:31:00.177Z,1.70
2022-12-19T12:31:08.776Z,1.80
2022-12-19T12:31:16.424Z,1.70
2022-12-19T12:31:50.265Z,1.80
2022-12-19T12:32:05.262Z,1.90
2022-12-19T12:35:41.441Z,1.90
2022-12-19T12:37:51.058Z,1.90
2022-12-19T12:38:23.549Z,1.90
2022-12-19T12:40:59.504Z,2.00
2022-12-19T12:43:38.964Z,1.90
2022-12-19T12:46:10.674Z,2.00
2022-12-19T12:48:39.715Z,2.00
2022-12-19T12:51:07.714Z,2.00
2022-12-19T12:53:38.163Z,2.00
2022-12-19T12:56:08.473Z,2.00
2022-12-19T12:59:03.076Z,2.00
2022-12-19T13:01:34.311Z,2.00
2022-12-19T13:04:04.905Z,2.00
2022-12-19T13:06:33.509Z,1.90
2022-12-19T13:09:03.434Z,1.90
2022-12-19T13:11:57.486Z,1.90
2022-12-19T13:14:45.245Z,1.90
2022-12-19T13:17:13.777Z,1.90
2022-12-19T13:19:53.317Z,2.00
2022-12-19T13:22:22.561Z,2.00
2022-12-19T13:24:51.543Z,2.10
2022-12-19T13:27:37.780Z,2.10
2022-12-19T13:30:17.390Z,2.20
2022-12-19T13:33:03.474Z,2.20
2022-12-19T13:36:52.251Z,2.20
2022-12-19T13:39:56.901Z,2.30
2022-12-19T13:41:43.569Z,2.30
2022-12-19T13:44:11.993Z,2.30
2022-12-19T13:46:42.481Z,2.30
2022-12-19T13:49:14.280Z,2.30
2022-12-19T13:51:44.229Z,2.20
2022-12-19T13:54:22.793Z,2.10
2022-12-19T13:56:50.856Z,2.10
2022-12-19T13:59:18.719Z,2.10
2022-12-19T14:01:48.010Z,2.10
2022-12-19T14:04:25.904Z,2.10
2022-12-19T14:06:56.842Z,2.00
2022-12-19T14:11:27.698Z,2.10
2022-12-19T14:13:56.996Z,2.10
2022-12-19T14:15:28.679Z,2.20
2022-12-19T14:17:59.941Z,2.20
2022-12-19T14:22:10.961Z,2.20
2022-12-19T14:23:43.485Z,2.20
2022-12-19T14:28:18.527Z,2.30
2022-12-19T14:29:02.824Z,2.40
2022-12-19T14:31:32.981Z,2.40
2022-12-19T14:34:42.938Z,2.40
2022-12-19T14:36:52.793Z,2.40
2022-12-19T14:39:28.917Z,2.50
2022-12-19T14:42:20.101Z,2.50
2022-12-19T14:52:08.552Z,2.60
2022-12-19T14:54:03.014Z,2.60
2022-12-19T14:54:32.218Z,2.50
2022-12-19T14:55:11.967Z,2.50
2022-12-19T14:56:59.817Z,2.60
2022-12-19T14:59:30.691Z,2.60
2022-12-19T15:02:01.057Z,2.60
2022-12-19T15:04:52.575Z,2.60
2022-12-19T15:07:21.796Z,2.60
2022-12-19T15:11:06.812Z,2.60
2022-12-19T15:14:57.048Z,2.50
2022-12-19T15:15:55.144Z,2.50
2022-12-19T15:18:25.170Z,2.50
2022-12-19T15:20:53.495Z,2.50
2022-12-19T15:23:23.033Z,2.50
2022-12-19T15:26:07.880Z,2.50
2022-12-19T15:28:41.150Z,2.40
2022-12-19T15:31:14.019Z,2.40
2022-12-19T15:34:00.188Z,2.30
2022-12-19T15:36:29.831Z,2.30
2022-12-19T15:39:06.328Z,2.30
2022-12-19T15:41:34.103Z,2.30
2022-12-19T15:44:06.947Z,2.30
2022-12-19T15:46:35.243Z,2.40
2022-12-19T15:49:03.067Z,2.30
2022-12-19T15:51:30.759Z,2.40
2022-12-19T15:54:15.605Z,2.30
2022-12-19T15:56:48.907Z,2.20
2022-12-19T15:59:22.421Z,2.20
2022-12-19T16:01:50.452Z,2.10
2022-12-19T16:04:22.145Z,2.00
2022-12-19T16:06:50.188Z,1.90
2022-12-19T16:09:22.088Z,2.00
2022-12-19T16:11:51.402Z,2.00
2022-12-19T16:14:19.708Z,2.10
2022-12-19T16:16:51.512Z,2.10
2022-12-19T16:19:26.560Z,2.10
2022-12-19T16:21:54.908Z,2.20
2022-12-19T16:24:23.172Z,2.20
2022-12-19T16:26:53.875Z,2.30
2022-12-19T16:29:24.208Z,2.20
2022-12-19T16:31:52.543Z,2.20
2022-12-19T16:34:21.466Z,2.10
2022-12-19T16:36:49.792Z,2.20
2022-12-19T16:39:17.983Z,2.20
2022-12-19T16:41:46.980Z,2.20
2022-12-19T16:44:19.437Z,2.20
2022-12-19T16:46:51.114Z,2.20
2022-12-19T16:49:20.104Z,2.20
2022-12-19T16:51:47.775Z,2.20
2022-12-19T16:54:16.188Z,2.20
2022-12-19T16:56:44.717Z,2.10
2022-12-19T16:59:15.644Z,2.20
2022-12-19T17:01:46.194Z,2.20
2022-12-19T17:04:14.623Z,2.20
2022-12-19T17:06:42.785Z,2.20
2022-12-19T17:09:13.631Z,2.20
2022-12-19T17:11:41.717Z,2.10
2022-12-19T17:14:12.821Z,2.20
2022-12-19T17:16:40.660Z,2.10
2022-12-19T17:19:11.867Z,2.10
2022-12-19T17:21:39.546Z,2.20
2022-12-19T17:24:11.424Z,2.10
2022-12-19T17:26:39.069Z,2.00
2022-12-19T17:29:06.780Z,2.00
2022-12-19T17:31:38.207Z,2.00
2022-12-19T17:34:08.174Z,2.10
2022-12-19T17:36:38.186Z,2.20
2022-12-19T17:39:14.974Z,2.10
2022-12-19T17:41:42.662Z,2.10
2022-12-19T17:44:11.501Z,2.20
2022-12-19T17:46:39.611Z,2.20
2022-12-19T17:49:07.477Z,2.10
2022-12-19T17:51:35.184Z,2.20
2022-12-19T17:54:04.400Z,2.20
2022-12-19T17:56:32.120Z,2.20
2022-12-19T17:58:59.843Z,2.20
2022-12-19T18:01:27.608Z,2.20
2022-12-19T18:03:56.165Z,2.10
2022-12-19T18:06:23.975Z,2.10
2022-12-19T18:08:51.665Z,2.00
2022-12-19T18:11:21.961Z,2.10
2022-12-19T18:13:49.934Z,2.10
2022-12-19T18:16:18.661Z,2.10
2022-12-19T18:18:46.498Z,2.20
2022-12-19T18:21:15.783Z,2.20
2022-12-19T18:23:43.742Z,2.20
2022-12-19T18:26:36.866Z,2.20
2022-12-19T18:29:05.977Z,2.20
2022-12-19T18:31:33.762Z,2.20
2022-12-19T18:34:07.342Z,2.20
2022-12-19T18:36:37.340Z,2.20
2022-12-19T18:39:05.824Z,2.20
2022-12-19T18:41:33.516Z,2.20
2022-12-19T18:44:01.225Z,2.20
2022-12-19T18:46:31.704Z,2.20
2022-12-19T18:48:59.495Z,2.20
2022-12-19T18:51:27.181Z,2.20
2022-12-19T18:53:54.955Z,2.20
2022-12-19T18:56:22.672Z,2.20
2022-12-19T18:58:50.557Z,2.20
2022-12-19T19:01:19.544Z,2.10
2022-12-19T19:03:53.068Z,2.10
2022-12-19T19:06:22.382Z,2.10
2022-12-19T19:08:51.600Z,2.10
2022-12-19T19:11:20.246Z,2.00
2022-12-19T19:13:47.955Z,2.10
2022-12-19T19:16:17.968Z,2.10
2022-12-19T19:18:45.954Z,2.10
2022-12-19T19:21:15.600Z,2.10
2022-12-19T19:23:46.770Z,2.10
2022-12-19T19:26:14.745Z,2.00
2022-12-19T19:28:44.917Z,2.10
2022-12-19T19:31:17.765Z,2.10
2022-12-19T19:33:48.596Z,2.10
2022-12-19T19:36:19.187Z,2.20
2022-12-19T19:38:48.864Z,2.20
2022-12-19T19:41:16.616Z,2.30
2022-12-19T19:43:44.336Z,2.30
2022-12-19T19:46:12.880Z,2.30
2022-12-19T19:48:42.369Z,2.20
2022-12-19T19:51:11.851Z,2.00
2022-12-19T19:53:40.932Z,1.90
2022-12-19T19:56:09.355Z,1.80
2022-12-19T19:58:37.180Z,1.80
2022-12-19T20:01:07.988Z,1.80
2022-12-19T20:03:35.827Z,1.80
2022-12-19T20:06:03.940Z,1.80
2022-12-19T20:08:38.844Z,1.90
2022-12-19T20:11:09.151Z,1.90
2022-12-19T20:13:37.520Z,2.00
2022-12-19T20:16:06.418Z,2.00
2022-12-19T20:18:34.366Z,2.10
2022-12-19T20:21:02.458Z,2.10
2022-12-19T20:23:31.686Z,2.20
2022-12-19T20:26:01.249Z,2.20
2022-12-19T20:28:30.345Z,2.20
2022-12-19T20:30:58.535Z,2.10
2022-12-19T20:33:26.314Z,2.10
2022-12-19T20:35:56.670Z,2.00
2022-12-19T20:38:24.533Z,2.00
2022-12-19T20:40:52.461Z,2.00
2022-12-19T20:43:20.209Z,2.00
2022-12-19T20:45:49.241Z,1.90
2022-12-19T20:48:16.928Z,1.90
2022-12-19T20:50:44.717Z,1.90
2022-12-19T20:53:12.569Z,2.00
2022-12-19T20:55:40.242Z,2.00
2022-12-19T20:58:07.956Z,2.00
2022-12-19T21:00:35.804Z,2.00
2022-12-19T21:05:53.114Z,2.00
2022-12-19T21:08:21.366Z,2.00
2022-12-19T21:10:49.125Z,2.10
2022-12-19T21:13:17.116Z,2.10
2022-12-19T21:15:44.905Z,2.20
2022-12-19T21:18:13.953Z,2.20
2022-12-19T21:20:41.651Z,2.10
2022-12-19T21:23:09.336Z,2.00
2022-12-19T21:25:37.051Z,2.10
2022-12-19T21:28:04.864Z,2.10
2022-12-19T21:30:32.557Z,2.20
2022-12-19T21:33:00.232Z,2.20
2022-12-19T21:35:29.321Z,2.30
2022-12-19T21:37:57.412Z,2.30
2022-12-19T21:40:25.114Z,2.30
2022-12-19T21:42:52.794Z,2.20
2022-12-19T21:45:20.480Z,2.20
2022-12-19T21:47:48.184Z,2.10
2022-12-19T21:50:16.272Z,2.10
2022-12-19T21:52:45.326Z,2.10
2022-12-19T21:55:13.129Z,2.20
2022-12-19T21:57:41.129Z,2.30
2022-12-19T22:00:10.179Z,2.30
2022-12-19T22:02:38.039Z,2.30
2022-12-19T22:05:06.569Z,2.40
2022-12-19T22:07:34.478Z,2.40
2022-12-19T22:10:03.505Z,2.40
2022-12-19T22:12:31.408Z,2.60
2022-12-19T22:14:59.745Z,3.00
2022-12-19T22:17:27.426Z,3.40
2022-12-19T22:19:55.251Z,3.70
2022-12-19T22:22:22.944Z,3.90
2022-12-19T22:24:50.644Z,4.20
2022-12-19T22:27:19.687Z,4.40
2022-12-19T22:29:47.500Z,4.50
2022-12-19T22:32:15.181Z,4.60
2022-12-19T22:34:42.894Z,4.70
2022-12-19T22:37:10.633Z,4.80
2022-12-19T22:39:38.465Z,4.80
2022-12-19T22:42:06.210Z,4.90
2022-12-19T22:44:35.245Z,5.00
2022-12-19T22:47:03.900Z,5.00
2022-12-19T22:49:31.645Z,5.10
2022-12-19T22:51:59.582Z,5.10
2022-12-19T22:54:27.250Z,5.00
2022-12-19T22:56:55.178Z,4.90
2022-12-19T22:59:22.848Z,4.90
2022-12-19T23:01:52.887Z,5.00
2022-12-19T23:04:20.917Z,5.00
2022-12-19T23:06:48.775Z,5.10
2022-12-19T23:09:17.552Z,5.10
2022-12-19T23:11:46.221Z,5.20
2022-12-19T23:14:14.564Z,5.30
2022-12-19T23:16:42.562Z,5.40
2022-12-19T23:19:11.840Z,5.40
2022-12-19T23:21:39.569Z,5.40
2022-12-19T23:24:07.352Z,5.40
2022-12-19T23:26:36.696Z,5.40
2022-12-19T23:29:05.194Z,5.50
2022-12-19T23:31:34.273Z,5.50
2022-12-19T23:34:02.345Z,5.50
2022-12-19T23:39:19.061Z,5.60
2022-12-19T23:41:46.763Z,5.60
2022-12-19T23:44:14.617Z,5.60
2022-12-19T23:46:42.329Z,5.60
2022-12-19T23:49:10.049Z,5.60
2022-12-19T23:51:39.117Z,5.60
2022-12-19T23:54:08.788Z,5.60
2022-12-19T23:56:36.705Z,5.60
2022-12-19T23:59:04.781Z,5.60
